Time;durP1;ratioP1;P1;durP2;ratioP2;P2;SDS_P1;SDS_P2;PMS_P1;PMS_P2;Temp;Humidity;BMP_temperature;BMP_pressure;BME280_temperature;BME280_humidity;BME280_pressure;Samples;Min_cycle;Max_cycle;Signal;HPM_P1;HPM_P2
2024/01/09 00:02:16;;;;;;;14.68;7.63;;;-6.20;99.90;;;-7.81;100.00;98048.44;4998854;28;20034;-36
2024/01/09 00:04:42;;;;;;;18.02;7.63;;;-6.20;99.90;;;-7.92;100.00;98024.91;4990520;28;20038;-37
2024/01/09 00:07:08;;;;;;;16.70;7.45;;;-6.30;99.90;;;-7.73;100.00;98057.34;4994622;28;20084;-36
2024/01/09 00:09:34;;;;;;;15.82;7.70;;;-6.20;99.90;;;-7.61;100.00;98058.69;4995727;28;20461;-36
2024/01/09 00:12:00;;;;;;;15.57;6.68;;;-6.20;99.90;;;-7.61;100.00;98058.69;4994780;28;20026;-36
2024/01/09 00:14:26;;;;;;;13.77;6.30;;;-6.20;99.90;;;-7.64;100.00;98051.78;4996553;28;20065;-36
2024/01/09 00:16:51;;;;;;;15.73;7.07;;;-6.20;99.90;;;-7.68;100.00;98057.53;4995943;28;20132;-36
2024/01/09 00:19:17;;;;;;;17.33;7.78;;;-6.30;99.90;;;-7.64;100.00;98056.91;4990224;28;20041;-36
2024/01/09 00:21:46;;;;;;;17.95;7.25;;;-6.20;99.90;;;-7.70;100.00;98047.25;4986137;28;20790;-36
2024/01/09 00:24:12;;;;;;;20.05;7.90;;;-6.20;99.90;;;-7.65;100.00;98054.25;4989155;28;20049;-36
2024/01/09 00:26:45;;;;;;;16.90;7.05;;;-6.20;99.90;;;-7.68;100.00;98047.28;4999871;28;20034;-36
2024/01/09 00:29:11;;;;;;;16.73;7.07;;;-6.20;99.90;;;-7.54;100.00;98051.34;4990801;28;20038;-36
2024/01/09 00:31:36;;;;;;;18.60;7.10;;;-6.20;99.90;;;-7.65;100.00;98037.19;4985322;28;20034;-36
2024/01/09 00:34:02;;;;;;;20.08;8.27;;;-6.20;99.90;;;-7.57;100.00;98043.53;4993426;28;20021;-36
2024/01/09 00:36:28;;;;;;;15.35;6.95;;;-6.10;99.90;;;-7.60;100.00;98045.09;4991956;28;21636;-36
2024/01/09 00:38:54;;;;;;;16.70;7.35;;;-6.20;99.90;;;-7.59;100.00;98062.19;4985061;28;20411;-36
2024/01/09 00:41:19;;;;;;;15.95;7.35;;;-6.20;99.90;;;-7.64;100.00;98056.00;4991345;28;20080;-37
2024/01/09 00:43:46;;;;;;;13.80;7.00;;;-6.30;99.90;;;-7.64;100.00;98059.44;4987906;28;20038;-37
2024/01/09 00:46:11;;;;;;;13.77;7.22;;;-6.20;99.90;;;-7.71;100.00;98053.16;4987259;28;20113;-37
2024/01/09 00:48:37;;;;;;;15.85;6.93;;;-6.30;99.90;;;-7.71;100.00;98057.44;4989889;28;20030;-37
2024/01/09 00:51:04;;;;;;;16.95;6.60;;;-6.30;99.90;;;-7.76;100.00;98051.22;4984946;28;20226;-37
2024/01/09 00:53:29;;;;;;;19.23;7.53;;;-6.30;99.90;;;-7.65;100.00;98054.25;4989480;28;20025;-37
2024/01/09 00:55:56;;;;;;;17.70;6.97;;;-6.30;99.90;;;-7.64;100.00;98041.53;4993995;28;20048;-37
2024/01/09 00:58:22;;;;;;;16.98;7.05;;;-6.30;99.90;;;-7.57;100.00;98058.03;4997520;28;20609;-37
2024/01/09 01:00:47;;;;;;;14.25;6.40;;;-6.30;99.90;;;-7.72;100.00;98043.72;4992664;28;20033;-37
2024/01/09 01:03:13;;;;;;;16.77;6.78;;;-6.30;99.90;;;-7.60;100.00;98053.66;4996146;28;20029;-37
2024/01/09 01:05:39;;;;;;;21.33;6.88;;;-6.30;99.90;;;-7.70;100.00;98037.00;4994973;28;20105;-37
2024/01/09 01:08:05;;;;;;;13.52;6.75;;;-6.30;99.90;;;-7.65;100.00;98059.38;4994355;28;20096;-37
2024/01/09 01:10:30;;;;;;;14.55;6.85;;;-6.30;99.90;;;-7.71;100.00;98047.19;4994982;28;20116;-36
2024/01/09 01:12:56;;;;;;;13.20;6.70;;;-6.30;99.90;;;-7.83;100.00;98044.94;4993893;28;20030;-36
2024/01/09 01:15:23;;;;;;;14.43;6.57;;;-6.30;99.90;;;-7.75;100.00;98064.09;4992844;28;20030;-36
2024/01/09 01:17:49;;;;;;;15.95;6.70;;;-6.30;99.90;;;-7.77;100.00;98065.72;4989341;28;20033;-37
2024/01/09 01:20:15;;;;;;;15.13;6.97;;;-6.40;99.90;;;-7.76;100.00;98059.75;4991283;28;20393;-37
2024/01/09 01:22:41;;;;;;;14.38;7.13;;;-6.40;99.90;;;-7.92;100.00;98047.06;4995858;28;20049;-37
2024/01/09 01:25:09;;;;;;;14.95;6.85;;;-6.40;99.90;;;-7.72;100.00;98065.91;4993204;28;20401;-37
2024/01/09 01:27:34;;;;;;;15.57;7.20;;;-6.40;99.90;;;-7.82;100.00;98056.94;4991465;28;20034;-37
2024/01/09 01:30:00;;;;;;;16.48;7.20;;;-6.40;99.90;;;-7.73;100.00;98074.41;4990498;28;20399;-37
2024/01/09 01:32:26;;;;;;;15.32;6.72;;;-6.40;99.90;;;-7.56;100.00;98073.47;4986760;28;20112;-37
2024/01/09 01:34:51;;;;;;;14.88;6.55;;;-6.30;99.90;;;-7.52;100.00;98067.69;4975969;28;20025;-37
2024/01/09 01:37:17;;;;;;;17.98;6.70;;;-6.30;99.90;;;-7.68;100.00;98068.69;4994717;28;20522;-37
2024/01/09 01:39:43;;;;;;;15.85;6.45;;;-6.20;99.90;;;-7.73;100.00;98064.16;4993448;28;20061;-37
2024/01/09 01:42:08;;;;;;;17.05;6.93;;;-6.30;99.90;;;-7.73;100.00;98074.41;4992695;28;20129;-37
2024/01/09 01:44:35;;;;;;;16.27;6.78;;;-6.30;99.90;;;-7.71;100.00;98080.47;4991560;28;20046;-37
2024/01/09 01:47:00;;;;;;;17.00;7.45;;;-6.30;99.90;;;-7.69;100.00;98081.41;4989143;28;20057;-36
2024/01/09 01:49:26;;;;;;;17.05;7.10;;;-6.40;99.90;;;-7.65;100.00;98079.88;4992530;28;20469;-37
2024/01/09 01:51:52;;;;;;;17.58;7.32;;;-6.30;99.90;;;-7.68;100.00;98066.13;4988998;28;20030;-37
2024/01/09 01:54:20;;;;;;;13.80;5.95;;;-6.30;99.90;;;-7.72;100.00;98069.34;4992590;28;20366;-36
2024/01/09 01:56:47;;;;;;;17.65;7.32;;;-6.30;99.90;;;-7.76;100.00;98066.59;4992073;28;20030;-36
2024/01/09 01:59:16;;;;;;;16.85;7.30;;;-6.30;99.90;;;-7.64;100.00;98082.50;4991792;28;20124;-37
2024/01/09 02:01:43;;;;;;;17.63;7.05;;;-6.40;99.90;;;-7.61;100.00;98077.50;4992460;28;20603;-37
2024/01/09 02:04:10;;;;;;;17.08;7.28;;;-6.30;99.90;;;-7.53;100.00;98073.63;4988068;28;20303;-36
2024/01/09 02:06:38;;;;;;;14.85;6.50;;;-6.30;99.90;;;-7.56;100.00;98072.59;4992320;28;20487;-37
2024/01/09 02:09:04;;;;;;;16.73;6.63;;;-6.20;99.90;;;-7.64;100.00;98079.94;4992564;28;20470;-37
2024/01/09 02:11:30;;;;;;;14.32;6.53;;;-6.30;99.90;;;-7.75;100.00;98066.66;4988274;28;20070;-36
2024/01/09 02:13:55;;;;;;;12.95;6.22;;;-6.30;99.90;;;-7.89;100.00;98057.47;4990041;28;20028;-36
2024/01/09 02:16:21;;;;;;;13.32;6.07;;;-6.30;99.90;;;-7.70;100.00;98075.44;4991404;28;20041;-36
2024/01/09 02:18:47;;;;;;;13.90;6.85;;;-6.40;99.90;;;-7.70;100.00;98077.09;4991959;28;20025;-36
2024/01/09 02:21:13;;;;;;;15.38;6.78;;;-6.30;99.90;;;-7.79;100.00;98069.88;4988751;28;20044;-36
2024/01/09 02:23:39;;;;;;;16.85;6.90;;;-6.40;99.90;;;-7.70;100.00;98075.44;4994575;28;20072;-36
2024/01/09 02:26:06;;;;;;;16.00;6.90;;;-6.40;99.90;;;-7.70;100.00;98077.09;4994529;28;20030;-36
2024/01/09 02:28:39;;;;;;;12.90;6.38;;;-6.40;99.90;;;-7.71;100.00;98073.66;5011288;28;20033;-36
2024/01/09 02:31:04;;;;;;;13.63;6.07;;;-6.40;99.90;;;-7.73;100.00;98065.03;4986730;28;20117;-36
2024/01/09 02:33:32;;;;;;;17.85;6.75;;;-6.40;99.90;;;-7.74;100.00;98062.41;4992724;28;20022;-36
2024/01/09 02:35:57;;;;;;;12.07;5.93;;;-6.40;99.90;;;-7.83;100.00;98056.88;4983743;28;20022;-36
2024/01/09 02:38:23;;;;;;;13.77;6.97;;;-6.40;99.90;;;-7.78;100.00;98068.19;4992862;28;20114;-36
2024/01/09 02:40:49;;;;;;;14.65;7.22;;;-6.40;99.90;;;-7.78;100.00;98065.63;4993754;28;20136;-36
2024/01/09 02:43:14;;;;;;;13.82;6.88;;;-6.40;99.90;;;-7.81;100.00;98071.47;4991008;28;20116;-36
2024/01/09 02:45:40;;;;;;;15.95;7.30;;;-6.40;99.90;;;-7.83;100.00;98059.44;4988780;28;20033;-36
2024/01/09 02:48:06;;;;;;;15.93;6.68;;;-6.50;99.90;;;-7.88;100.00;98054.09;4989529;28;20036;-36
2024/01/09 02:50:32;;;;;;;13.02;5.75;;;-6.40;99.90;;;-7.83;100.00;98060.28;4990939;28;20041;-36
2024/01/09 02:52:58;;;;;;;14.05;6.50;;;-6.50;99.90;;;-7.92;100.00;98052.19;4986687;28;20422;-36
2024/01/09 02:55:23;;;;;;;15.48;6.65;;;-6.50;99.90;;;-7.89;100.00;98048.09;4985946;28;20565;-36
2024/01/09 02:57:49;;;;;;;14.00;6.60;;;-6.50;99.90;;;-7.86;100.00;98039.66;4983589;28;20299;-36
2024/01/09 03:00:15;;;;;;;16.10;6.72;;;-6.40;99.90;;;-7.74;100.00;98054.72;4982582;28;20604;-36
2024/01/09 03:02:41;;;;;;;14.48;6.22;;;-6.40;99.90;;;-7.77;100.00;98057.13;4986514;28;20030;-36
2024/01/09 03:05:09;;;;;;;15.95;6.85;;;-6.40;99.90;;;-7.87;100.00;98040.47;4982614;28;20049;-36
2024/01/09 03:07:35;;;;;;;13.90;6.32;;;-6.50;99.90;;;-7.88;100.00;98047.31;4985316;28;20045;-36
2024/01/09 03:10:02;;;;;;;17.63;6.82;;;-6.50;99.90;;;-7.97;100.00;98039.16;4980948;28;20033;-36
2024/01/09 03:12:27;;;;;;;14.40;6.88;;;-6.50;99.90;;;-7.98;100.00;98046.81;4984476;28;20022;-35
2024/01/09 03:14:53;;;;;;;14.98;7.13;;;-6.60;99.90;;;-7.95;100.00;98050.38;4981708;28;20475;-36
2024/01/09 03:17:25;;;;;;;13.80;6.65;;;-6.60;99.90;;;-7.95;100.00;98052.03;4986806;28;20426;-36
2024/01/09 03:19:51;;;;;;;14.82;6.88;;;-6.60;99.90;;;-8.07;100.00;98019.97;4964934;28;20141;-36
2024/01/09 03:22:17;;;;;;;12.50;6.22;;;-6.50;99.90;;;-7.93;100.00;98045.31;4983214;28;20029;-36
2024/01/09 03:24:42;;;;;;;16.67;6.28;;;-6.50;99.90;;;-7.97;100.00;98046.84;4979554;28;20116;-36
2024/01/09 03:27:08;;;;;;;15.77;6.93;;;-6.60;99.90;;;-7.91;100.00;98048.84;4983168;28;20048;-36
2024/01/09 03:29:34;;;;;;;17.17;7.22;;;-6.60;99.90;;;-7.95;100.00;98047.81;4985032;28;20076;-36
2024/01/09 03:32:00;;;;;;;15.10;6.97;;;-6.60;99.90;;;-7.98;100.00;98036.56;4982067;28;20034;-36
2024/01/09 03:34:25;;;;;;;13.88;6.60;;;-6.60;99.90;;;-7.97;100.00;98054.53;4991362;28;20026;-36
2024/01/09 03:36:51;;;;;;;13.52;6.55;;;-6.60;99.90;;;-8.00;100.00;98041.63;4985885;28;20064;-36
2024/01/09 03:39:17;;;;;;;13.60;6.57;;;-6.60;99.90;;;-8.03;100.00;98046.59;4982367;28;20030;-36
2024/01/09 03:41:43;;;;;;;17.35;6.22;;;-6.60;99.90;;;-8.02;100.00;98053.47;4980498;28;20038;-36
2024/01/09 03:44:12;;;;;;;13.77;6.15;;;-6.60;99.90;;;-8.03;100.00;98053.41;4983247;28;20402;-36
2024/01/09 03:46:38;;;;;;;12.98;6.15;;;-6.60;99.90;;;-7.98;100.00;98057.91;4986080;28;20036;-36
2024/01/09 03:49:04;;;;;;;16.38;6.45;;;-6.60;99.90;;;-8.05;100.00;98050.75;4985614;28;20034;-37
2024/01/09 03:51:29;;;;;;;14.05;6.85;;;-6.60;99.90;;;-8.01;100.00;98051.78;4988508;28;20694;-36
2024/01/09 03:53:55;;;;;;;12.70;6.53;;;-6.60;99.90;;;-8.08;100.00;98043.78;4986889;28;20033;-36
2024/01/09 03:56:21;;;;;;;16.35;6.35;;;-6.50;99.90;;;-8.01;100.00;98056.91;4990050;28;20112;-36
2024/01/09 03:58:47;;;;;;;14.63;7.03;;;-6.50;99.90;;;-8.27;100.00;98008.81;4986209;28;20490;-35
2024/01/09 04:01:12;;;;;;;15.55;6.65;;;-6.60;99.90;;;-7.91;100.00;98042.03;4986357;28;20026;-35
2024/01/09 04:03:38;;;;;;;16.20;6.93;;;-6.60;99.90;;;-7.93;100.00;98045.31;4989506;28;20514;-35
2024/01/09 04:06:04;;;;;;;16.35;5.68;;;-6.50;99.90;;;-7.93;100.00;98038.53;4991985;28;20034;-35
2024/01/09 04:08:29;;;;;;;14.48;6.32;;;-6.50;99.90;;;-7.95;100.00;98039.25;4993610;28;20050;-35
2024/01/09 04:10:55;;;;;;;15.45;6.00;;;-6.50;99.90;;;-7.96;100.00;98042.63;4982755;28;20305;-36
2024/01/09 04:13:21;;;;;;;18.90;6.25;;;-6.50;99.90;;;-7.89;100.00;98045.53;4989025;28;20157;-35
2024/01/09 04:15:47;;;;;;;15.35;6.60;;;-6.50;99.90;;;-7.91;100.00;98042.03;4989055;28;20077;-35
2024/01/09 04:18:13;;;;;;;13.57;5.75;;;-6.50;99.90;;;-7.94;100.00;98048.69;4992932;28;20068;-35
2024/01/09 04:20:42;;;;;;;16.38;6.28;;;-6.60;99.90;;;-7.94;100.00;98044.44;4986228;28;20545;-36
2024/01/09 04:23:08;;;;;;;13.05;6.07;;;-6.60;99.90;;;-7.96;100.00;98050.31;4981926;28;20080;-36
2024/01/09 04:25:34;;;;;;;12.77;5.95;;;-6.60;99.90;;;-7.88;100.00;98044.75;4990803;28;20026;-35
2024/01/09 04:28:00;;;;;;;15.32;6.20;;;-6.50;99.90;;;-7.90;100.00;98056.56;4993098;28;20045;-36
2024/01/09 04:30:26;;;;;;;13.05;6.13;;;-6.50;99.90;;;-7.79;100.00;98054.50;4995930;28;20430;-36
2024/01/09 04:32:52;;;;;;;18.58;6.82;;;-6.50;99.90;;;-7.92;100.00;98052.19;4994004;28;20045;-35
2024/01/09 04:35:18;;;;;;;14.40;6.28;;;-6.50;99.90;;;-7.99;100.00;98051.03;4987659;28;20508;-36
2024/01/09 04:37:44;;;;;;;17.05;6.25;;;-6.50;99.90;;;-7.98;100.00;98062.16;4994870;28;20046;-36
2024/01/09 04:40:10;;;;;;;13.25;6.28;;;-6.60;99.90;;;-8.04;100.00;98062.72;4991913;28;20022;-36
2024/01/09 04:42:36;;;;;;;15.40;6.38;;;-6.60;99.90;;;-8.04;100.00;98055.06;4997360;28;20041;-36
2024/01/09 04:45:01;;;;;;;14.15;6.18;;;-6.60;99.90;;;-8.08;100.00;98058.28;4993611;28;20042;-36
2024/01/09 04:47:27;;;;;;;15.25;6.10;;;-6.70;99.90;;;-8.08;100.00;98055.72;4988005;28;20125;-36
2024/01/09 04:49:53;;;;;;;17.05;6.88;;;-6.70;99.90;;;-8.14;100.00;98058.03;4985022;28;20036;-36
2024/01/09 04:52:18;;;;;;;14.95;6.30;;;-6.70;99.90;;;-8.24;100.00;98023.41;4990012;28;20026;-36
2024/01/09 04:54:44;;;;;;;12.48;5.38;;;-6.70;99.90;;;-8.10;100.00;98042.84;4990294;28;20030;-36
2024/01/09 04:57:10;;;;;;;13.90;6.03;;;-6.70;99.90;;;-8.07;100.00;98044.69;4992964;28;20026;-36
2024/01/09 04:59:35;;;;;;;15.43;6.15;;;-6.70;99.90;;;-7.99;100.00;98056.16;4991945;28;20038;-36
2024/01/09 05:02:02;;;;;;;14.93;5.93;;;-6.60;99.90;;;-7.90;100.00;98046.31;4989380;28;20128;-36
2024/01/09 05:04:31;;;;;;;16.27;5.90;;;-6.60;99.90;;;-7.89;100.00;98047.22;4994811;28;20022;-36
2024/01/09 05:06:57;;;;;;;15.00;6.15;;;-6.50;99.90;;;-7.94;100.00;98049.56;4989538;28;20049;-35
2024/01/09 05:09:23;;;;;;;16.85;6.40;;;-6.50;99.90;;;-7.92;100.00;98050.50;4991734;28;20498;-36
2024/01/09 05:11:49;;;;;;;12.43;5.82;;;-6.50;99.90;;;-7.85;100.00;98044.00;4992278;28;20541;-36
2024/01/09 05:14:15;;;;;;;13.23;5.80;;;-6.50;99.90;;;-7.94;100.00;98038.44;4981528;28;20750;-36
2024/01/09 05:16:41;;;;;;;14.63;5.70;;;-6.50;99.90;;;-7.77;100.00;98057.13;4989821;28;20069;-36
2024/01/09 05:19:06;;;;;;;17.17;5.93;;;-6.50;99.90;;;-7.80;100.00;98054.44;4984792;28;20073;-36
2024/01/09 05:21:32;;;;;;;14.73;6.18;;;-6.50;99.90;;;-7.89;100.00;98049.78;4989743;28;20478;-36
2024/01/09 05:23:58;;;;;;;16.05;5.78;;;-6.50;99.90;;;-7.81;100.00;98055.25;4992112;28;20088;-36
2024/01/09 05:26:23;;;;;;;11.90;5.28;;;-6.50;99.90;;;-7.86;100.00;98037.09;4988041;28;20034;-36
2024/01/09 05:28:49;;;;;;;14.88;6.28;;;-6.50;99.90;;;-7.74;100.00;98053.03;4991148;28;20100;-36
2024/01/09 05:31:15;;;;;;;13.48;5.32;;;-6.40;99.90;;;-7.80;100.00;98057.00;4991366;28;20026;-36
2024/01/09 05:33:41;;;;;;;13.55;5.63;;;-6.40;99.90;;;-7.87;100.00;98056.72;4992047;28;20030;-36
2024/01/09 05:36:06;;;;;;;16.33;6.07;;;-6.50;99.90;;;-7.88;100.00;98049.88;4988253;28;20038;-35
2024/01/09 05:38:33;;;;;;;14.25;5.65;;;-6.50;99.90;;;-7.91;100.00;98048.84;4992901;28;20030;-36
2024/01/09 05:40:59;;;;;;;13.15;5.78;;;-6.50;99.90;;;-7.88;100.00;98054.09;4987795;28;20030;-35
2024/01/09 05:43:24;;;;;;;11.57;5.18;;;-6.50;99.90;;;-7.89;100.00;98048.09;4994845;28;20430;-35
2024/01/09 05:45:50;;;;;;;13.18;5.20;;;-6.50;99.90;;;-7.83;100.00;98062.00;4986132;28;20034;-36
2024/01/09 05:48:16;;;;;;;12.73;5.43;;;-6.50;99.90;;;-7.96;100.00;98045.19;4983625;28;20580;-36
2024/01/09 05:50:41;;;;;;;15.00;5.55;;;-6.50;99.90;;;-7.90;100.00;98055.69;4972381;28;20034;-36
2024/01/09 05:53:08;;;;;;;13.73;5.63;;;-6.50;99.90;;;-7.98;100.00;98049.38;4990044;28;20045;-36
2024/01/09 05:55:34;;;;;;;14.55;6.05;;;-6.50;99.90;;;-8.00;100.00;98064.66;4997066;28;20190;-36
2024/01/09 05:58:00;;;;;;;12.52;5.57;;;-6.60;99.90;;;-7.99;100.00;98051.03;4992812;28;20450;-36
2024/01/09 06:00:26;;;;;;;19.17;6.15;;;-6.60;99.90;;;-8.15;100.00;98038.34;4986253;28;20295;-36
2024/01/09 06:02:51;;;;;;;12.63;5.57;;;-6.60;99.90;;;-7.95;100.00;98062.28;4986778;28;20045;-36
2024/01/09 06:05:17;;;;;;;14.30;5.93;;;-6.60;99.90;;;-7.92;100.00;98065.88;4994113;28;20041;-36
2024/01/09 06:07:43;;;;;;;14.02;5.32;;;-6.60;99.90;;;-7.98;100.00;98063.03;4995590;28;20038;-36
2024/01/09 06:10:09;;;;;;;12.10;5.28;;;-6.60;99.90;;;-7.99;100.00;98065.53;4989356;28;20345;-36
2024/01/09 06:12:35;;;;;;;16.27;6.10;;;-6.60;99.90;;;-7.99;100.00;98068.09;4992082;28;20022;-36
2024/01/09 06:15:01;;;;;;;13.02;6.15;;;-6.60;99.90;;;-7.97;100.00;98075.00;4984035;28;20533;-36
2024/01/09 06:17:27;;;;;;;13.40;5.68;;;-6.60;99.90;;;-8.10;100.00;98057.34;4990883;28;20030;-36
2024/01/09 06:19:53;;;;;;;13.73;5.88;;;-6.60;99.90;;;-7.92;100.00;98071.00;4982500;28;20042;-36
2024/01/09 06:22:18;;;;;;;17.48;5.75;;;-6.60;99.90;;;-7.97;100.00;98066.47;4989139;28;20112;-36
2024/01/09 06:24:44;;;;;;;13.55;5.90;;;-6.50;99.90;;;-8.02;100.00;98053.47;4992388;28;20812;-36
2024/01/09 06:27:10;;;;;;;14.23;5.57;;;-6.50;99.90;;;-7.91;100.00;98080.44;4987274;28;20038;-36
2024/01/09 06:29:36;;;;;;;16.00;4.80;;;-6.60;99.90;;;-7.98;100.00;98074.97;4998345;28;20324;-36
2024/01/09 06:32:02;;;;;;;13.07;5.50;;;-6.60;99.90;;;-8.06;100.00;98072.03;4988692;28;20379;-36
2024/01/09 06:34:28;;;;;;;11.77;5.43;;;-6.60;99.90;;;-8.06;100.00;98082.28;4997185;28;20380;-36
2024/01/09 06:36:53;;;;;;;15.57;5.80;;;-6.60;99.90;;;-8.08;100.00;98079.63;4995627;28;20029;-36
2024/01/09 06:39:19;;;;;;;12.23;5.38;;;-6.70;99.90;;;-8.06;100.00;98083.16;4993107;28;20268;-36
2024/01/09 06:41:45;;;;;;;12.15;5.13;;;-6.70;99.90;;;-7.96;100.00;98075.91;4996735;28;20072;-36
2024/01/09 06:44:11;;;;;;;12.38;5.82;;;-6.60;99.90;;;-7.99;100.00;98060.41;4994344;28;20033;-36
2024/01/09 06:46:37;;;;;;;13.35;5.05;;;-6.60;99.90;;;-7.94;100.00;98074.28;4994437;28;20030;-36
2024/01/09 06:49:03;;;;;;;14.05;5.60;;;-6.60;99.90;;;-7.99;100.00;98076.63;4991657;28;20046;-36
2024/01/09 06:51:29;;;;;;;13.75;5.40;;;-6.60;99.90;;;-8.03;100.00;98079.88;4995324;28;20533;-36
2024/01/09 06:53:55;;;;;;;14.05;5.30;;;-6.60;99.90;;;-8.04;100.00;98085.78;4994094;28;20461;-36
2024/01/09 06:56:21;;;;;;;13.90;5.82;;;-6.70;99.90;;;-8.02;100.00;98085.84;4997560;28;20072;-36
2024/01/09 06:58:47;;;;;;;9.73;5.13;;;-6.60;99.90;;;-8.09;100.00;98070.22;4991885;28;20132;-36
2024/01/09 07:01:13;;;;;;;12.60;5.95;;;-6.60;99.90;;;-8.06;100.00;98084.84;4991859;28;20076;-36
2024/01/09 07:03:38;;;;;;;10.40;5.03;;;-6.60;99.90;;;-8.07;100.00;98089.09;4994281;28;20382;-36
2024/01/09 07:06:04;;;;;;;10.45;4.68;;;-6.70;99.90;;;-8.06;100.00;98097.63;4993896;28;20044;-36
2024/01/09 07:08:30;;;;;;;13.18;5.70;;;-6.70;99.90;;;-8.09;100.00;98083.03;4997383;28;20483;-36
2024/01/09 07:10:57;;;;;;;11.93;5.57;;;-6.70;99.90;;;-8.12;100.00;98076.88;4997420;28;20042;-36
2024/01/09 07:13:23;;;;;;;20.35;6.03;;;-6.70;99.90;;;-7.96;100.00;98086.16;4994982;28;20033;-36
2024/01/09 07:15:49;;;;;;;12.50;5.55;;;-6.70;99.90;;;-7.98;100.00;98078.41;4989487;28;20034;-36
2024/01/09 07:18:15;;;;;;;14.20;5.45;;;-6.60;99.90;;;-7.90;100.00;98092.41;4991030;28;20041;-35
2024/01/09 07:20:43;;;;;;;16.15;5.97;;;-6.60;99.90;;;-7.97;100.00;98081.81;4997013;28;20083;-35
2024/01/09 07:23:08;;;;;;;13.88;6.18;;;-6.60;99.90;;;-7.97;100.00;98080.13;4995217;28;20770;-36
2024/01/09 07:25:34;;;;;;;16.45;6.30;;;-6.60;99.90;;;-7.87;100.00;98092.56;4996490;28;20034;-35
2024/01/09 07:28:00;;;;;;;13.52;5.25;;;-6.50;99.90;;;-7.80;100.00;98096.28;4998424;28;20128;-36
2024/01/09 07:30:25;;;;;;;15.60;6.82;;;-6.50;99.90;;;-7.78;100.00;98097.25;4997791;28;20062;-35
2024/01/09 07:32:51;;;;;;;15.85;5.93;;;-6.50;99.90;;;-7.79;100.00;98095.47;4999574;28;20426;-36
2024/01/09 07:35:17;;;;;;;16.38;5.68;;;-6.50;99.90;;;-7.79;100.00;98099.72;4995146;28;20033;-36
2024/01/09 07:37:42;;;;;;;15.30;6.25;;;-6.50;99.90;;;-7.73;100.00;98102.59;5000600;28;20038;-35
2024/01/09 07:40:09;;;;;;;13.90;5.88;;;-6.40;99.90;;;-7.72;100.00;98096.63;4996217;28;20100;-36
2024/01/09 07:42:35;;;;;;;14.25;6.55;;;-6.30;99.90;;;-7.71;100.00;98093.28;5000119;28;20033;-36
2024/01/09 07:45:01;;;;;;;13.52;6.13;;;-6.40;99.90;;;-7.82;100.00;98087.66;4998039;28;20034;-36
2024/01/09 07:47:26;;;;;;;14.75;5.72;;;-6.40;99.90;;;-7.66;100.00;98117.44;4993239;28;20089;-36
2024/01/09 07:49:52;;;;;;;16.15;6.38;;;-6.30;99.90;;;-7.76;100.00;98099.88;4994625;28;20105;-37
2024/01/09 07:52:19;;;;;;;14.25;6.25;;;-6.30;99.90;;;-7.71;100.00;98117.19;4998173;28;20037;-36
2024/01/09 07:54:45;;;;;;;12.70;5.60;;;-6.30;99.90;;;-7.69;100.00;98120.72;5000426;28;20128;-37
2024/01/09 07:57:11;;;;;;;14.68;5.75;;;-6.30;99.90;;;-7.68;100.00;98114.78;4998491;28;20847;-37
2024/01/09 07:59:36;;;;;;;9.40;4.72;;;-6.30;99.90;;;-7.67;100.00;98120.78;5001555;28;20072;-36
2024/01/09 08:02:02;;;;;;;13.63;6.22;;;-6.30;99.90;;;-7.77;100.00;98105.78;4995279;28;20040;-37
2024/01/09 08:04:28;;;;;;;14.63;6.28;;;-6.30;99.90;;;-7.69;100.00;98115.59;4999548;28;20042;-36
2024/01/09 08:06:54;;;;;;;12.57;6.18;;;-6.30;99.90;;;-7.59;100.00;98110.88;4998168;28;20049;-36
2024/01/09 08:09:20;;;;;;;14.45;5.70;;;-6.20;99.90;;;-7.71;100.00;98093.28;4998903;28;20179;-36
2024/01/09 08:11:46;;;;;;;13.82;6.30;;;-6.20;99.90;;;-7.56;100.00;98117.03;5001223;28;20068;-36
2024/01/09 08:14:13;;;;;;;13.73;5.32;;;-6.20;99.90;;;-7.58;100.00;98126.31;4998523;28;20083;-36
2024/01/09 08:16:40;;;;;;;11.60;5.32;;;-6.20;99.90;;;-7.62;100.00;98121.00;4997586;28;20103;-37
2024/01/09 08:19:07;;;;;;;12.77;5.30;;;-6.20;99.90;;;-7.64;100.00;98123.50;4994711;28;20225;-37
2024/01/09 08:21:35;;;;;;;13.52;6.28;;;-6.30;99.90;;;-7.65;100.00;98121.72;4999882;28;20136;-37
2024/01/09 08:24:01;;;;;;;13.52;6.03;;;-6.20;99.90;;;-7.60;100.00;98125.38;4995807;28;20022;-37
2024/01/09 08:26:27;;;;;;;15.70;5.93;;;-6.20;99.90;;;-7.58;100.00;98121.19;4995776;28;20022;-37
2024/01/09 08:28:52;;;;;;;13.63;6.05;;;-6.20;99.90;;;-7.58;100.00;98121.19;4997027;28;20494;-37
2024/01/09 08:31:18;;;;;;;15.77;6.18;;;-6.20;99.90;;;-7.49;100.00;98113.06;4995150;28;20029;-36
2024/01/09 08:33:44;;;;;;;14.02;6.55;;;-6.10;99.90;;;-7.44;100.00;98115.84;4994173;28;20479;-36
2024/01/09 08:36:10;;;;;;;12.38;5.63;;;-6.10;99.90;;;-7.50;100.00;98096.81;4995871;28;20083;-37
2024/01/09 08:38:36;;;;;;;19.90;6.25;;;-6.00;99.90;;;-7.32;100.00;98116.38;5001139;28;20068;-36
2024/01/09 08:41:02;;;;;;;12.65;5.78;;;-6.00;99.90;;;-7.30;100.00;98109.66;4997264;28;20378;-36
2024/01/09 08:43:29;;;;;;;14.48;6.15;;;-5.90;99.90;;;-7.22;100.00;98117.66;4993220;28;20400;-36
2024/01/09 08:45:54;;;;;;;14.38;6.22;;;-5.80;99.90;;;-7.15;100.00;98128.25;4995583;28;20834;-37
2024/01/09 08:48:20;;;;;;;14.75;6.40;;;-5.80;99.90;;;-7.18;100.00;98110.16;4994777;28;20094;-36
2024/01/09 08:50:46;;;;;;;13.25;6.05;;;-5.70;99.90;;;-7.01;100.00;98122.88;4996464;28;20108;-36
2024/01/09 08:53:11;;;;;;;13.80;5.72;;;-5.60;99.90;;;-7.04;100.00;98110.78;4994778;28;20120;-36
2024/01/09 08:55:37;;;;;;;17.27;6.05;;;-5.50;99.90;;;-6.90;100.00;98124.19;4996832;28;20124;-36
2024/01/09 08:58:03;;;;;;;13.52;6.35;;;-5.50;99.90;;;-6.76;100.00;98125.66;4995460;28;20033;-37
2024/01/09 09:00:29;;;;;;;16.02;6.68;;;-5.40;99.90;;;-6.73;100.00;98118.09;4993114;28;20453;-36
2024/01/09 09:02:55;;;;;;;11.85;5.70;;;-5.30;99.90;;;-6.63;100.00;98121.91;4995912;28;20040;-36
2024/01/09 09:05:20;;;;;;;13.25;5.68;;;-5.20;99.90;;;-6.56;100.00;98125.63;4993610;28;20320;-37
2024/01/09 09:07:46;;;;;;;16.55;5.97;;;-5.20;99.90;;;-6.46;100.00;98126.88;4998507;28;20046;-36
2024/01/09 09:10:12;;;;;;;14.85;6.32;;;-5.10;99.90;;;-6.42;100.00;98119.38;4997178;28;20486;-36
2024/01/09 09:12:38;;;;;;;17.90;7.57;;;-5.00;99.90;;;-6.48;100.00;98106.28;4994495;28;20038;-37
2024/01/09 09:15:04;;;;;;;13.70;6.43;;;-5.00;99.90;;;-6.30;100.00;98123.25;4986342;28;20069;-36
2024/01/09 09:17:33;;;;;;;14.38;5.97;;;-5.00;99.90;;;-6.20;100.00;98125.38;4994463;28;20031;-37
2024/01/09 09:19:59;;;;;;;20.38;7.18;;;-4.90;99.90;;;-6.22;100.00;98117.63;4992656;28;20048;-36
2024/01/09 09:22:25;;;;;;;16.02;6.30;;;-4.80;99.90;;;-6.12;100.00;98121.41;4992468;28;20025;-37
2024/01/09 09:24:54;;;;;;;20.48;7.10;;;-4.80;99.90;;;-6.16;100.00;98117.00;4996219;28;20663;-36
2024/01/09 09:27:20;;;;;;;13.50;6.13;;;-4.80;99.90;;;-6.17;100.00;98117.81;4995373;28;20534;-36
2024/01/09 09:29:46;;;;;;;16.90;7.03;;;-4.70;99.90;;;-6.04;100.00;98121.75;4994310;28;20044;-36
2024/01/09 09:32:12;;;;;;;14.35;6.20;;;-4.70;99.90;;;-6.08;100.00;98124.97;4988553;28;20256;-36
2024/01/09 09:34:41;;;;;;;16.45;6.63;;;-4.70;99.90;;;-6.03;100.00;98126.94;4995700;28;20034;-36
2024/01/09 09:37:07;;;;;;;16.05;6.75;;;-4.70;99.90;;;-5.89;100.00;98136.84;4994099;28;20410;-36
2024/01/09 09:39:34;;;;;;;14.90;6.47;;;-4.60;99.90;;;-5.87;100.00;98127.50;4994143;28;20053;-37
2024/01/09 09:42:00;;;;;;;18.05;7.28;;;-4.50;99.90;;;-5.81;100.00;98131.19;4996311;28;20076;-36
2024/01/09 09:44:26;;;;;;;12.43;6.13;;;-4.50;99.90;;;-5.77;99.05;98122.78;4992186;28;20042;-37
2024/01/09 09:46:54;;;;;;;21.48;7.97;;;-4.40;99.90;;;-5.78;99.20;98115.00;4995658;28;20391;-36
2024/01/09 09:49:23;;;;;;;17.35;7.07;;;-4.40;99.90;;;-5.62;96.66;98114.78;4979281;28;20188;-36
2024/01/09 09:51:54;;;;;;;18.05;7.60;;;-4.40;99.90;;;-5.70;95.64;98113.63;4990737;28;20124;-37
2024/01/09 09:54:22;;;;;;;15.25;6.68;;;-4.30;99.90;;;-5.52;94.30;98122.88;4995658;28;20061;-37
2024/01/09 09:56:48;;;;;;;16.65;6.80;;;-4.20;99.90;;;-5.54;92.00;98115.09;4996412;28;20196;-36
2024/01/09 09:59:15;;;;;;;16.70;6.13;;;-4.20;99.90;;;-5.46;91.59;98123.94;4990233;28;20520;-37
2024/01/09 10:01:42;;;;;;;14.63;6.28;;;-4.20;99.90;;;-5.44;89.69;98119.72;4994400;28;20036;-37